sensor_id;sensor_type;location;lat;lon;timestamp;pressure;altitude;pressure_sealevel;temperature;humidity
64230;BME280;50547;49.498;0.092;2023-09-08T00:01:13;1011.18;;;26.69;66.01
64230;BME280;50547;49.498;0.092;2023-09-08T00:03:42;1011.22;;;26.84;65.14
64230;BME280;50547;49.498;0.092;2023-09-08T00:06:11;1011.20;;;27.00;64.61
64230;BME280;50547;49.498;0.092;2023-09-08T00:08:40;1011.20;;;27.31;63.41
64230;BME280;50547;49.498;0.092;2023-09-08T00:11:09;1011.24;;;27.47;62.88
64230;BME280;50547;49.498;0.092;2023-09-08T00:13:38;1011.24;;;27.68;62.40
64230;BME280;50547;49.498;0.092;2023-09-08T00:16:07;1011.24;;;27.79;62.16
64230;BME280;50547;49.498;0.092;2023-09-08T00:18:36;1011.26;;;27.88;62.04
64230;BME280;50547;49.498;0.092;2023-09-08T00:21:05;1011.22;;;27.92;62.11
64230;BME280;50547;49.498;0.092;2023-09-08T00:23:34;1011.24;;;27.93;62.25
64230;BME280;50547;49.498;0.092;2023-09-08T00:26:03;1011.24;;;27.93;62.34
64230;BME280;50547;49.498;0.092;2023-09-08T00:28:32;1011.22;;;27.81;62.92
64230;BME280;50547;49.498;0.092;2023-09-08T00:31:01;1011.18;;;27.60;63.89
64230;BME280;50547;49.498;0.092;2023-09-08T00:33:30;1011.22;;;27.28;65.26
64230;BME280;50547;49.498;0.092;2023-09-08T00:35:59;1011.20;;;27.05;66.08
64230;BME280;50547;49.498;0.092;2023-09-08T00:38:28;1011.22;;;27.08;65.25
64230;BME280;50547;49.498;0.092;2023-09-08T00:40:57;1011.26;;;26.99;65.37
64230;BME280;50547;49.498;0.092;2023-09-08T00:43:26;1011.28;;;26.99;64.85
64230;BME280;50547;49.498;0.092;2023-09-08T00:45:56;1011.24;;;26.93;65.09
64230;BME280;50547;49.498;0.092;2023-09-08T00:48:25;1011.24;;;26.88;65.43
64230;BME280;50547;49.498;0.092;2023-09-08T00:50:54;1011.18;;;26.80;65.73
64230;BME280;50547;49.498;0.092;2023-09-08T00:53:25;1011.24;;;26.78;65.80
64230;BME280;50547;49.498;0.092;2023-09-08T00:55:54;1011.20;;;26.69;66.33
64230;BME280;50547;49.498;0.092;2023-09-08T00:58:24;1011.20;;;26.61;66.67
64230;BME280;50547;49.498;0.092;2023-09-08T01:00:53;1011.18;;;26.65;66.45
64230;BME280;50547;49.498;0.092;2023-09-08T01:03:22;1011.17;;;26.59;66.71
64230;BME280;50547;49.498;0.092;2023-09-08T01:05:52;1011.17;;;26.54;66.90
64230;BME280;50547;49.498;0.092;2023-09-08T01:08:21;1011.17;;;26.60;66.59
64230;BME280;50547;49.498;0.092;2023-09-08T01:10:48;1011.17;;;26.50;67.14
64230;BME280;50547;49.498;0.092;2023-09-08T01:13:17;1011.17;;;26.45;67.47
64230;BME280;50547;49.498;0.092;2023-09-08T01:15:46;1011.18;;;26.36;67.86
64230;BME280;50547;49.498;0.092;2023-09-08T01:18:15;1011.22;;;26.39;67.62
64230;BME280;50547;49.498;0.092;2023-09-08T01:21:00;1011.26;;;26.41;67.33
64230;BME280;50547;49.498;0.092;2023-09-08T01:23:47;1011.28;;;26.49;66.79
64230;BME280;50547;49.498;0.092;2023-09-08T01:26:21;1011.26;;;26.60;66.53
64230;BME280;50547;49.498;0.092;2023-09-08T01:28:54;1011.28;;;26.83;65.63
64230;BME280;50547;49.498;0.092;2023-09-08T01:31:24;1011.22;;;26.88;65.58
64230;BME280;50547;49.498;0.092;2023-09-08T01:33:54;1011.24;;;26.96;65.30
64230;BME280;50547;49.498;0.092;2023-09-08T01:36:23;1011.26;;;27.00;65.51
64230;BME280;50547;49.498;0.092;2023-09-08T01:38:52;1011.22;;;27.15;65.17
64230;BME280;50547;49.498;0.092;2023-09-08T01:41:21;1011.24;;;27.27;64.56
64230;BME280;50547;49.498;0.092;2023-09-08T01:43:47;1011.26;;;27.23;65.13
64230;BME280;50547;49.498;0.092;2023-09-08T01:46:16;1011.28;;;27.22;65.35
64230;BME280;50547;49.498;0.092;2023-09-08T01:48:45;1011.30;;;27.24;65.40
64230;BME280;50547;49.498;0.092;2023-09-08T01:51:14;1011.32;;;27.23;65.58
64230;BME280;50547;49.498;0.092;2023-09-08T01:53:43;1011.36;;;27.23;65.62
64230;BME280;50547;49.498;0.092;2023-09-08T01:56:12;1011.32;;;27.09;68.04
64230;BME280;50547;49.498;0.092;2023-09-08T01:58:41;1011.30;;;26.73;70.12
64230;BME280;50547;49.498;0.092;2023-09-08T02:01:07;1011.28;;;26.43;71.24
64230;BME280;50547;49.498;0.092;2023-09-08T02:03:36;1011.28;;;26.51;70.32
64230;BME280;50547;49.498;0.092;2023-09-08T02:06:05;1011.28;;;26.56;69.66
64230;BME280;50547;49.498;0.092;2023-09-08T02:08:31;1011.32;;;26.63;69.86
64230;BME280;50547;49.498;0.092;2023-09-08T02:11:00;1011.28;;;26.56;70.55
64230;BME280;50547;49.498;0.092;2023-09-08T02:13:29;1011.24;;;26.32;72.17
64230;BME280;50547;49.498;0.092;2023-09-08T02:15:58;1011.28;;;26.29;72.39
64230;BME280;50547;49.498;0.092;2023-09-08T02:18:27;1011.28;;;26.33;72.21
64230;BME280;50547;49.498;0.092;2023-09-08T02:20:56;1011.26;;;26.20;72.80
64230;BME280;50547;49.498;0.092;2023-09-08T02:23:25;1011.24;;;26.17;73.06
64230;BME280;50547;49.498;0.092;2023-09-08T02:25:51;1011.24;;;26.20;72.87
64230;BME280;50547;49.498;0.092;2023-09-08T02:28:20;1011.26;;;26.23;72.59
64230;BME280;50547;49.498;0.092;2023-09-08T02:30:49;1011.24;;;26.17;72.49
64230;BME280;50547;49.498;0.092;2023-09-08T02:33:18;1011.20;;;26.06;72.65
64230;BME280;50547;49.498;0.092;2023-09-08T02:35:48;1011.20;;;25.84;72.63
64230;BME280;50547;49.498;0.092;2023-09-08T02:38:17;1011.24;;;25.86;72.19
64230;BME280;50547;49.498;0.092;2023-09-08T02:40:46;1011.20;;;25.84;71.62
64230;BME280;50547;49.498;0.092;2023-09-08T02:43:14;1011.24;;;25.91;71.48
64230;BME280;50547;49.498;0.092;2023-09-08T02:45:43;1011.20;;;25.96;71.27
64230;BME280;50547;49.498;0.092;2023-09-08T02:48:15;1011.20;;;25.95;70.88
64230;BME280;50547;49.498;0.092;2023-09-08T02:50:44;1011.20;;;25.80;71.06
64230;BME280;50547;49.498;0.092;2023-09-08T02:53:13;1011.24;;;25.96;70.53
64230;BME280;50547;49.498;0.092;2023-09-08T02:55:42;1011.24;;;26.04;69.99
64230;BME280;50547;49.498;0.092;2023-09-08T02:58:11;1011.26;;;25.97;70.18
64230;BME280;50547;49.498;0.092;2023-09-08T03:00:40;1011.28;;;26.10;69.59
64230;BME280;50547;49.498;0.092;2023-09-08T03:03:09;1011.22;;;25.98;70.12
64230;BME280;50547;49.498;0.092;2023-09-08T03:05:38;1011.24;;;26.00;70.19
64230;BME280;50547;49.498;0.092;2023-09-08T03:08:07;1011.24;;;26.04;69.96
64230;BME280;50547;49.498;0.092;2023-09-08T03:10:36;1011.20;;;26.03;70.14
64230;BME280;50547;49.498;0.092;2023-09-08T03:13:05;1011.20;;;26.03;70.09
64230;BME280;50547;49.498;0.092;2023-09-08T03:15:34;1011.18;;;25.97;70.46
64230;BME280;50547;49.498;0.092;2023-09-08T03:18:04;1011.17;;;25.83;71.35
64230;BME280;50547;49.498;0.092;2023-09-08T03:20:33;1011.15;;;25.80;71.42
64230;BME280;50547;49.498;0.092;2023-09-08T03:23:02;1011.09;;;25.64;72.03
64230;BME280;50547;49.498;0.092;2023-09-08T03:25:31;1011.05;;;25.46;72.93
64230;BME280;50547;49.498;0.092;2023-09-08T03:28:00;1011.03;;;25.38;72.90
64230;BME280;50547;49.498;0.092;2023-09-08T03:30:29;1011.01;;;25.41;72.48
64230;BME280;50547;49.498;0.092;2023-09-08T03:32:58;1011.05;;;25.49;71.62
64230;BME280;50547;49.498;0.092;2023-09-08T03:35:27;1011.01;;;25.39;72.09
64230;BME280;50547;49.498;0.092;2023-09-08T03:37:56;1011.05;;;25.36;71.83
64230;BME280;50547;49.498;0.092;2023-09-08T03:40:25;1011.03;;;25.37;71.68
64230;BME280;50547;49.498;0.092;2023-09-08T03:42:54;1011.05;;;25.38;71.56
64230;BME280;50547;49.498;0.092;2023-09-08T03:45:23;1011.05;;;25.30;71.95
64230;BME280;50547;49.498;0.092;2023-09-08T03:47:52;1011.05;;;25.28;71.99
64230;BME280;50547;49.498;0.092;2023-09-08T03:50:21;1011.05;;;25.25;72.12
64230;BME280;50547;49.498;0.092;2023-09-08T03:52:50;1011.05;;;25.28;71.92
64230;BME280;50547;49.498;0.092;2023-09-08T03:55:20;1011.05;;;25.24;71.97
64230;BME280;50547;49.498;0.092;2023-09-08T03:57:49;1011.07;;;25.30;71.76
64230;BME280;50547;49.498;0.092;2023-09-08T04:00:18;1011.07;;;25.32;71.70
64230;BME280;50547;49.498;0.092;2023-09-08T04:02:48;1011.01;;;25.31;71.73
64230;BME280;50547;49.498;0.092;2023-09-08T04:05:17;1010.99;;;25.24;72.14
64230;BME280;50547;49.498;0.092;2023-09-08T04:07:47;1011.01;;;25.11;72.75
64230;BME280;50547;49.498;0.092;2023-09-08T04:10:16;1010.97;;;25.02;73.07
64230;BME280;50547;49.498;0.092;2023-09-08T04:12:45;1010.93;;;24.98;72.94
64230;BME280;50547;49.498;0.092;2023-09-08T04:15:14;1010.91;;;25.00;72.72
64230;BME280;50547;49.498;0.092;2023-09-08T04:17:43;1010.93;;;25.01;72.58
64230;BME280;50547;49.498;0.092;2023-09-08T04:20:12;1010.91;;;24.99;72.60
64230;BME280;50547;49.498;0.092;2023-09-08T04:22:41;1010.97;;;25.07;72.11
64230;BME280;50547;49.498;0.092;2023-09-08T04:25:10;1010.99;;;25.10;71.81
64230;BME280;50547;49.498;0.092;2023-09-08T04:27:39;1010.97;;;25.11;71.89
64230;BME280;50547;49.498;0.092;2023-09-08T04:30:09;1010.99;;;25.06;72.20
64230;BME280;50547;49.498;0.092;2023-09-08T04:32:38;1011.01;;;24.91;72.96
64230;BME280;50547;49.498;0.092;2023-09-08T04:35:08;1011.07;;;25.00;72.54
64230;BME280;50547;49.498;0.092;2023-09-08T04:37:37;1011.07;;;25.08;72.02
64230;BME280;50547;49.498;0.092;2023-09-08T04:40:07;1011.07;;;25.05;72.16
64230;BME280;50547;49.498;0.092;2023-09-08T04:42:36;1011.13;;;25.05;72.14
64230;BME280;50547;49.498;0.092;2023-09-08T04:45:06;1011.15;;;25.12;71.46
64230;BME280;50547;49.498;0.092;2023-09-08T04:47:35;1011.20;;;25.23;70.86
64230;BME280;50547;49.498;0.092;2023-09-08T04:50:04;1011.18;;;25.20;70.85
64230;BME280;50547;49.498;0.092;2023-09-08T04:52:33;1011.18;;;24.89;72.02
64230;BME280;50547;49.498;0.092;2023-09-08T04:55:03;1011.20;;;24.64;73.72
64230;BME280;50547;49.498;0.092;2023-09-08T04:57:32;1011.18;;;24.51;73.98
64230;BME280;50547;49.498;0.092;2023-09-08T05:00:01;1011.22;;;24.53;73.39
64230;BME280;50547;49.498;0.092;2023-09-08T05:02:30;1011.20;;;24.52;73.49
64230;BME280;50547;49.498;0.092;2023-09-08T05:04:59;1011.24;;;24.66;72.91
64230;BME280;50547;49.498;0.092;2023-09-08T05:07:28;1011.26;;;24.77;72.44
64230;BME280;50547;49.498;0.092;2023-09-08T05:09:57;1011.24;;;24.91;71.92
64230;BME280;50547;49.498;0.092;2023-09-08T05:12:27;1011.26;;;25.01;71.67
64230;BME280;50547;49.498;0.092;2023-09-08T05:14:56;1011.28;;;24.88;71.66
64230;BME280;50547;49.498;0.092;2023-09-08T05:17:25;1011.34;;;24.83;71.93
64230;BME280;50547;49.498;0.092;2023-09-08T05:19:54;1011.36;;;24.84;71.99
64230;BME280;50547;49.498;0.092;2023-09-08T05:22:23;1011.36;;;24.80;72.05
64230;BME280;50547;49.498;0.092;2023-09-08T05:24:52;1011.34;;;24.67;72.94
64230;BME280;50547;49.498;0.092;2023-09-08T05:27:21;1011.34;;;24.63;73.18
64230;BME280;50547;49.498;0.092;2023-09-08T05:29:50;1011.34;;;24.59;73.33
64230;BME280;50547;49.498;0.092;2023-09-08T05:32:20;1011.34;;;24.54;73.46
64230;BME280;50547;49.498;0.092;2023-09-08T05:34:48;1011.40;;;24.46;73.83
64230;BME280;50547;49.498;0.092;2023-09-08T05:37:18;1011.36;;;24.40;74.10
64230;BME280;50547;49.498;0.092;2023-09-08T05:39:46;1011.34;;;24.20;75.14
64230;BME280;50547;49.498;0.092;2023-09-08T05:42:15;1011.36;;;24.23;75.06
64230;BME280;50547;49.498;0.092;2023-09-08T05:44:44;1011.40;;;24.38;74.44
64230;BME280;50547;49.498;0.092;2023-09-08T05:47:14;1011.40;;;24.46;73.48
64230;BME280;50547;49.498;0.092;2023-09-08T05:49:43;1011.42;;;24.49;73.47
64230;BME280;50547;49.498;0.092;2023-09-08T05:52:12;1011.42;;;24.54;73.49
64230;BME280;50547;49.498;0.092;2023-09-08T05:54:41;1011.44;;;24.54;73.14
64230;BME280;50547;49.498;0.092;2023-09-08T05:57:10;1011.48;;;24.65;72.39
64230;BME280;50547;49.498;0.092;2023-09-08T05:59:39;1011.50;;;24.71;72.22
64230;BME280;50547;49.498;0.092;2023-09-08T06:02:08;1011.48;;;24.84;71.81
64230;BME280;50547;49.498;0.092;2023-09-08T06:04:37;1011.48;;;24.98;71.15
64230;BME280;50547;49.498;0.092;2023-09-08T06:07:06;1011.48;;;25.11;70.99
64230;BME280;50547;49.498;0.092;2023-09-08T06:09:34;1011.48;;;25.18;70.60
64230;BME280;50547;49.498;0.092;2023-09-08T06:12:04;1011.48;;;25.13;70.84
64230;BME280;50547;49.498;0.092;2023-09-08T06:14:33;1011.46;;;25.21;70.58
64230;BME280;50547;49.498;0.092;2023-09-08T06:17:03;1011.48;;;25.32;69.55
64230;BME280;50547;49.498;0.092;2023-09-08T06:19:32;1011.48;;;25.47;69.22
64230;BME280;50547;49.498;0.092;2023-09-08T06:22:01;1011.46;;;25.50;68.73
64230;BME280;50547;49.498;0.092;2023-09-08T06:24:30;1011.50;;;25.47;68.72
64230;BME280;50547;49.498;0.092;2023-09-08T06:26:59;1011.48;;;25.64;68.32
64230;BME280;50547;49.498;0.092;2023-09-08T06:29:28;1011.54;;;25.76;67.21
64230;BME280;50547;49.498;0.092;2023-09-08T06:31:57;1011.56;;;25.86;66.98
64230;BME280;50547;49.498;0.092;2023-09-08T06:34:26;1011.62;;;25.93;66.48
64230;BME280;50547;49.498;0.092;2023-09-08T06:36:55;1011.60;;;26.04;66.16
64230;BME280;50547;49.498;0.092;2023-09-08T06:39:25;1011.58;;;25.83;67.37
64230;BME280;50547;49.498;0.092;2023-09-08T06:41:54;1011.64;;;25.91;67.13
64230;BME280;50547;49.498;0.092;2023-09-08T06:44:23;1011.65;;;26.08;66.11
64230;BME280;50547;49.498;0.092;2023-09-08T06:46:52;1011.65;;;26.18;65.83
64230;BME280;50547;49.498;0.092;2023-09-08T06:49:21;1011.67;;;26.33;65.00
64230;BME280;50547;49.498;0.092;2023-09-08T06:51:50;1011.69;;;26.65;63.66
64230;BME280;50547;49.498;0.092;2023-09-08T06:54:19;1011.69;;;26.65;63.49
64230;BME280;50547;49.498;0.092;2023-09-08T06:56:48;1011.75;;;26.79;62.85
64230;BME280;50547;49.498;0.092;2023-09-08T06:59:17;1011.75;;;26.87;62.83
64230;BME280;50547;49.498;0.092;2023-09-08T07:01:46;1011.79;;;27.06;62.34
64230;BME280;50547;49.498;0.092;2023-09-08T07:04:15;1011.81;;;27.29;61.21
64230;BME280;50547;49.498;0.092;2023-09-08T07:06:44;1011.79;;;27.53;61.20
64230;BME280;50547;49.498;0.092;2023-09-08T07:09:13;1011.79;;;27.61;60.94
64230;BME280;50547;49.498;0.092;2023-09-08T07:11:43;1011.81;;;27.84;60.74
64230;BME280;50547;49.498;0.092;2023-09-08T07:14:12;1011.77;;;27.94;60.73
64230;BME280;50547;49.498;0.092;2023-09-08T07:16:40;1011.77;;;28.07;60.42
64230;BME280;50547;49.498;0.092;2023-09-08T07:19:09;1011.73;;;28.04;62.46
64230;BME280;50547;49.498;0.092;2023-09-08T07:21:38;1011.77;;;27.98;62.63
64230;BME280;50547;49.498;0.092;2023-09-08T07:24:08;1011.75;;;28.23;61.68
64230;BME280;50547;49.498;0.092;2023-09-08T07:26:37;1011.77;;;28.27;61.71
64230;BME280;50547;49.498;0.092;2023-09-08T07:29:06;1011.81;;;28.29;62.04
64230;BME280;50547;49.498;0.092;2023-09-08T07:31:35;1011.81;;;28.15;62.98
64230;BME280;50547;49.498;0.092;2023-09-08T07:34:04;1011.77;;;28.09;63.32
64230;BME280;50547;49.498;0.092;2023-09-08T07:36:36;1011.77;;;28.18;63.20
64230;BME280;50547;49.498;0.092;2023-09-08T07:39:05;1011.77;;;28.41;62.72
64230;BME280;50547;49.498;0.092;2023-09-08T07:41:34;1011.77;;;28.44;62.60
64230;BME280;50547;49.498;0.092;2023-09-08T07:44:03;1011.75;;;28.42;63.23
64230;BME280;50547;49.498;0.092;2023-09-08T07:46:32;1011.77;;;28.52;63.14
64230;BME280;50547;49.498;0.092;2023-09-08T07:49:01;1011.77;;;28.65;62.42
64230;BME280;50547;49.498;0.092;2023-09-08T07:51:30;1011.77;;;28.40;63.35
64230;BME280;50547;49.498;0.092;2023-09-08T07:53:59;1011.77;;;28.13;64.66
64230;BME280;50547;49.498;0.092;2023-09-08T07:56:28;1011.77;;;27.77;66.03
64230;BME280;50547;49.498;0.092;2023-09-08T07:58:58;1011.77;;;27.66;66.14
64230;BME280;50547;49.498;0.092;2023-09-08T08:01:27;1011.79;;;27.69;66.19
64230;BME280;50547;49.498;0.092;2023-09-08T08:03:56;1011.77;;;28.01;64.63
64230;BME280;50547;49.498;0.092;2023-09-08T08:06:27;1011.77;;;28.28;63.50
64230;BME280;50547;49.498;0.092;2023-09-08T08:08:56;1011.83;;;28.66;62.46
64230;BME280;50547;49.498;0.092;2023-09-08T08:11:25;1011.87;;;28.89;61.59
64230;BME280;50547;49.498;0.092;2023-09-08T08:13:54;1011.89;;;28.89;62.08
64230;BME280;50547;49.498;0.092;2023-09-08T08:16:23;1011.89;;;28.93;62.06
64230;BME280;50547;49.498;0.092;2023-09-08T08:18:52;1011.93;;;28.84;62.47
64230;BME280;50547;49.498;0.092;2023-09-08T08:21:21;1011.97;;;28.97;61.97
64230;BME280;50547;49.498;0.092;2023-09-08T08:23:50;1011.99;;;29.13;62.00
64230;BME280;50547;49.498;0.092;2023-09-08T08:26:19;1012.03;;;29.45;60.81
64230;BME280;50547;49.498;0.092;2023-09-08T08:28:48;1012.03;;;29.45;60.63
64230;BME280;50547;49.498;0.092;2023-09-08T08:31:17;1012.05;;;29.52;60.68
64230;BME280;50547;49.498;0.092;2023-09-08T08:33:46;1012.05;;;29.77;60.53
64230;BME280;50547;49.498;0.092;2023-09-08T08:36:15;1012.09;;;30.08;59.57
64230;BME280;50547;49.498;0.092;2023-09-08T08:38:44;1012.07;;;30.37;58.81
64230;BME280;50547;49.498;0.092;2023-09-08T08:41:13;1012.12;;;30.77;57.81
64230;BME280;50547;49.498;0.092;2023-09-08T08:43:43;1012.12;;;30.86;57.21
64230;BME280;50547;49.498;0.092;2023-09-08T08:46:13;1012.16;;;31.11;57.18
64230;BME280;50547;49.498;0.092;2023-09-08T08:48:42;1012.22;;;31.33;57.09
64230;BME280;50547;49.498;0.092;2023-09-08T08:51:13;1012.20;;;31.27;58.05
64230;BME280;50547;49.498;0.092;2023-09-08T08:53:42;1012.18;;;31.14;58.67
64230;BME280;50547;49.498;0.092;2023-09-08T08:56:11;1012.16;;;31.32;58.11
64230;BME280;50547;49.498;0.092;2023-09-08T08:58:40;1012.18;;;31.16;58.74
64230;BME280;50547;49.498;0.092;2023-09-08T09:01:10;1012.12;;;31.35;57.98
64230;BME280;50547;49.498;0.092;2023-09-08T09:03:40;1012.12;;;31.38;58.45
64230;BME280;50547;49.498;0.092;2023-09-08T09:06:10;1012.16;;;31.40;58.59
64230;BME280;50547;49.498;0.092;2023-09-08T09:08:40;1012.16;;;31.51;58.29
64230;BME280;50547;49.498;0.092;2023-09-08T09:11:10;1012.18;;;31.61;58.16
64230;BME280;50547;49.498;0.092;2023-09-08T09:13:39;1012.16;;;31.68;58.25
64230;BME280;50547;49.498;0.092;2023-09-08T09:16:08;1012.22;;;31.83;57.85
64230;BME280;50547;49.498;0.092;2023-09-08T09:18:53;1012.24;;;32.07;56.33
64230;BME280;50547;49.498;0.092;2023-09-08T09:21:23;1012.30;;;32.41;53.85
64230;BME280;50547;49.498;0.092;2023-09-08T09:23:52;1012.24;;;32.69;52.71
64230;BME280;50547;49.498;0.092;2023-09-08T09:26:24;1012.28;;;32.84;52.02
64230;BME280;50547;49.498;0.092;2023-09-08T09:28:53;1012.28;;;33.22;50.65
64230;BME280;50547;49.498;0.092;2023-09-08T09:31:23;1012.32;;;33.40;50.02
64230;BME280;50547;49.498;0.092;2023-09-08T09:34:02;1012.26;;;33.25;51.77
64230;BME280;50547;49.498;0.092;2023-09-08T09:36:31;1012.24;;;33.17;52.57
64230;BME280;50547;49.498;0.092;2023-09-08T09:39:00;1012.22;;;33.00;53.13
64230;BME280;50547;49.498;0.092;2023-09-08T09:41:30;1012.16;;;33.12;53.06
64230;BME280;50547;49.498;0.092;2023-09-08T09:43:59;1012.18;;;33.43;51.73
64230;BME280;50547;49.498;0.092;2023-09-08T09:46:28;1012.18;;;33.60;50.74
64230;BME280;50547;49.498;0.092;2023-09-08T09:48:58;1012.22;;;33.85;49.85
64230;BME280;50547;49.498;0.092;2023-09-08T09:51:27;1012.18;;;34.06;49.70
64230;BME280;50547;49.498;0.092;2023-09-08T09:53:57;1012.24;;;34.21;49.05
64230;BME280;50547;49.498;0.092;2023-09-08T09:56:26;1012.26;;;34.39;48.91
64230;BME280;50547;49.498;0.092;2023-09-08T09:58:56;1012.24;;;34.35;48.92
64230;BME280;50547;49.498;0.092;2023-09-08T10:01:25;1012.22;;;34.26;49.31
64230;BME280;50547;49.498;0.092;2023-09-08T10:03:55;1012.22;;;33.65;51.24
64230;BME280;50547;49.498;0.092;2023-09-08T10:06:25;1012.18;;;33.73;50.58
64230;BME280;50547;49.498;0.092;2023-09-08T10:08:55;1012.16;;;33.84;50.02
64230;BME280;50547;49.498;0.092;2023-09-08T10:11:26;1012.20;;;33.95;49.56
64230;BME280;50547;49.498;0.092;2023-09-08T10:13:59;1012.18;;;33.80;50.40
64230;BME280;50547;49.498;0.092;2023-09-08T10:16:28;1012.16;;;33.81;50.55
64230;BME280;50547;49.498;0.092;2023-09-08T10:19:04;1012.20;;;33.89;49.92
64230;BME280;50547;49.498;0.092;2023-09-08T10:21:39;1012.20;;;34.07;49.67
64230;BME280;50547;49.498;0.092;2023-09-08T10:24:14;1012.20;;;34.09;49.07
64230;BME280;50547;49.498;0.092;2023-09-08T10:26:47;1012.18;;;33.72;50.24
64230;BME280;50547;49.498;0.092;2023-09-08T10:29:20;1012.16;;;33.82;50.11
64230;BME280;50547;49.498;0.092;2023-09-08T10:31:49;1012.16;;;33.71;50.41
64230;BME280;50547;49.498;0.092;2023-09-08T10:34:19;1012.22;;;33.64;50.32
64230;BME280;50547;49.498;0.092;2023-09-08T10:36:49;1012.18;;;33.78;49.44
64230;BME280;50547;49.498;0.092;2023-09-08T10:39:35;1012.20;;;33.66;50.41
64230;BME280;50547;49.498;0.092;2023-09-08T10:42:40;1012.22;;;33.87;49.47
64230;BME280;50547;49.498;0.092;2023-09-08T10:45:15;1012.24;;;34.38;47.94
64230;BME280;50547;49.498;0.092;2023-09-08T10:48:00;1012.20;;;34.70;46.84
64230;BME280;50547;49.498;0.092;2023-09-08T10:50:32;1012.20;;;34.86;46.40
64230;BME280;50547;49.498;0.092;2023-09-08T10:53:13;1012.14;;;34.93;46.67
64230;BME280;50547;49.498;0.092;2023-09-08T10:55:43;1012.11;;;35.10;46.64
64230;BME280;50547;49.498;0.092;2023-09-08T10:58:30;1012.16;;;35.56;45.36
64230;BME280;50547;49.498;0.092;2023-09-08T11:01:00;1012.07;;;34.48;48.67
64230;BME280;50547;49.498;0.092;2023-09-08T11:03:44;1012.11;;;34.56;47.54
64230;BME280;50547;49.498;0.092;2023-09-08T11:06:15;1012.09;;;34.31;48.80
64230;BME280;50547;49.498;0.092;2023-09-08T11:08:45;1012.07;;;34.24;48.67
64230;BME280;50547;49.498;0.092;2023-09-08T11:11:16;1011.99;;;34.75;47.05
64230;BME280;50547;49.498;0.092;2023-09-08T11:13:45;1012.01;;;35.13;46.16
64230;BME280;50547;49.498;0.092;2023-09-08T11:16:14;1011.99;;;35.37;45.34
64230;BME280;50547;49.498;0.092;2023-09-08T11:18:43;1012.03;;;35.80;43.91
64230;BME280;50547;49.498;0.092;2023-09-08T11:21:13;1012.03;;;35.76;44.26
64230;BME280;50547;49.498;0.092;2023-09-08T11:23:43;1012.05;;;35.75;44.37
64230;BME280;50547;49.498;0.092;2023-09-08T11:26:12;1012.03;;;35.69;44.96
64230;BME280;50547;49.498;0.092;2023-09-08T11:28:41;1012.03;;;35.79;44.26
64230;BME280;50547;49.498;0.092;2023-09-08T11:31:11;1012.01;;;35.54;45.04
64230;BME280;50547;49.498;0.092;2023-09-08T11:33:40;1011.97;;;35.48;46.05
64230;BME280;50547;49.498;0.092;2023-09-08T11:36:12;1011.99;;;35.71;44.80
64230;BME280;50547;49.498;0.092;2023-09-08T11:38:43;1011.99;;;35.58;45.35
64230;BME280;50547;49.498;0.092;2023-09-08T11:41:12;1011.97;;;35.67;45.20
64230;BME280;50547;49.498;0.092;2023-09-08T11:43:42;1011.97;;;35.69;44.97
64230;BME280;50547;49.498;0.092;2023-09-08T11:46:11;1011.91;;;35.77;44.84
64230;BME280;50547;49.498;0.092;2023-09-08T11:48:40;1011.87;;;35.80;45.32
64230;BME280;50547;49.498;0.092;2023-09-08T11:51:10;1011.89;;;35.96;45.07
64230;BME280;50547;49.498;0.092;2023-09-08T11:53:40;1011.83;;;35.25;47.36
64230;BME280;50547;49.498;0.092;2023-09-08T11:56:10;1011.89;;;35.45;46.01
64230;BME280;50547;49.498;0.092;2023-09-08T11:58:39;1011.89;;;35.64;45.29
64230;BME280;50547;49.498;0.092;2023-09-08T12:01:08;1011.87;;;35.50;45.78
64230;BME280;50547;49.498;0.092;2023-09-08T12:03:51;1011.83;;;35.19;46.61
64230;BME280;50547;49.498;0.092;2023-09-08T12:06:24;1011.81;;;35.50;45.35
64230;BME280;50547;49.498;0.092;2023-09-08T12:08:53;1011.83;;;35.41;45.32
64230;BME280;50547;49.498;0.092;2023-09-08T12:11:22;1011.75;;;35.28;46.11
64230;BME280;50547;49.498;0.092;2023-09-08T12:14:00;1011.75;;;35.28;45.74
64230;BME280;50547;49.498;0.092;2023-09-08T12:16:29;1011.71;;;34.75;47.78
64230;BME280;50547;49.498;0.092;2023-09-08T12:18:58;1011.69;;;34.64;47.86
64230;BME280;50547;49.498;0.092;2023-09-08T12:21:27;1011.69;;;34.48;48.02
64230;BME280;50547;49.498;0.092;2023-09-08T12:23:56;1011.73;;;34.33;48.34
64230;BME280;50547;49.498;0.092;2023-09-08T12:26:26;1011.71;;;34.60;47.09
64230;BME280;50547;49.498;0.092;2023-09-08T12:28:55;1011.71;;;34.69;46.92
64230;BME280;50547;49.498;0.092;2023-09-08T12:31:24;1011.77;;;34.34;48.23
64230;BME280;50547;49.498;0.092;2023-09-08T12:33:53;1011.75;;;34.21;48.81
64230;BME280;50547;49.498;0.092;2023-09-08T12:36:23;1011.73;;;34.44;47.45
64230;BME280;50547;49.498;0.092;2023-09-08T12:38:53;1011.69;;;34.11;48.98
64230;BME280;50547;49.498;0.092;2023-09-08T12:41:22;1011.69;;;34.27;48.62
64230;BME280;50547;49.498;0.092;2023-09-08T12:43:51;1011.65;;;34.45;48.00
64230;BME280;50547;49.498;0.092;2023-09-08T12:46:21;1011.69;;;34.77;47.13
64230;BME280;50547;49.498;0.092;2023-09-08T12:48:50;1011.73;;;34.99;46.57
64230;BME280;50547;49.498;0.092;2023-09-08T12:51:19;1011.71;;;35.10;46.49
64230;BME280;50547;49.498;0.092;2023-09-08T12:53:49;1011.65;;;34.73;47.76
64230;BME280;50547;49.498;0.092;2023-09-08T12:56:17;1011.62;;;34.50;48.69
64230;BME280;50547;49.498;0.092;2023-09-08T12:58:46;1011.60;;;34.71;48.01
64230;BME280;50547;49.498;0.092;2023-09-08T13:01:15;1011.60;;;34.65;48.29
64230;BME280;50547;49.498;0.092;2023-09-08T13:03:44;1011.56;;;34.38;49.48
64230;BME280;50547;49.498;0.092;2023-09-08T13:06:13;1011.56;;;34.30;49.65
64230;BME280;50547;49.498;0.092;2023-09-08T13:08:42;1011.48;;;34.04;50.34
64230;BME280;50547;49.498;0.092;2023-09-08T13:11:11;1011.48;;;33.96;50.52
64230;BME280;50547;49.498;0.092;2023-09-08T13:13:40;1011.42;;;34.06;49.84
64230;BME280;50547;49.498;0.092;2023-09-08T13:16:09;1011.48;;;33.65;50.76
64230;BME280;50547;49.498;0.092;2023-09-08T13:18:38;1011.44;;;33.09;52.59
64230;BME280;50547;49.498;0.092;2023-09-08T13:21:07;1011.32;;;32.21;56.03
64230;BME280;50547;49.498;0.092;2023-09-08T13:23:36;1011.24;;;32.04;56.40